createdAt,value
2023-05-19T00:02:00.502Z,14.35
2023-05-19T00:04:28.502Z,16.30
2023-05-19T00:06:56.752Z,20.70
2023-05-19T00:09:24.101Z,17.55
2023-05-19T00:11:51.390Z,16.77
2023-05-19T00:14:18.506Z,15.43
2023-05-19T00:16:45.871Z,16.15
2023-05-19T00:19:12.959Z,14.15
2023-05-19T00:21:40.743Z,17.35
2023-05-19T00:24:08.028Z,16.17
2023-05-19T00:26:35.103Z,17.95
2023-05-19T00:29:02.093Z,16.95
2023-05-19T00:31:29.159Z,15.57
2023-05-19T00:33:56.244Z,17.15
2023-05-19T00:36:23.536Z,15.63
2023-05-19T00:38:51.468Z,17.45
2023-05-19T00:41:18.871Z,18.08
2023-05-19T00:43:46.143Z,17.85
2023-05-19T00:46:13.198Z,17.63
2023-05-19T00:48:40.395Z,19.45
2023-05-19T00:51:07.477Z,18.00
2023-05-19T00:53:35.587Z,22.27
2023-05-19T00:56:03.558Z,14.52
2023-05-19T00:58:31.278Z,18.13
2023-05-19T01:01:05.407Z,18.50
2023-05-19T01:03:35.706Z,19.15
2023-05-19T01:06:07.550Z,16.75
2023-05-19T01:08:36.579Z,18.52
2023-05-19T01:11:06.810Z,18.35
2023-05-19T01:13:35.952Z,15.52
2023-05-19T01:16:14.473Z,14.18
2023-05-19T01:18:51.186Z,16.75
2023-05-19T01:21:24.470Z,22.15
2023-05-19T01:23:51.734Z,16.20
2023-05-19T01:26:37.544Z,16.75
2023-05-19T01:29:40.096Z,18.60
2023-05-19T01:32:08.230Z,13.07
2023-05-19T01:34:40.120Z,17.90
2023-05-19T01:37:09.165Z,17.25
2023-05-19T01:39:36.553Z,20.73
2023-05-19T01:42:04.480Z,13.35
2023-05-19T01:44:33.340Z,13.90
2023-05-19T01:47:01.018Z,16.15
2023-05-19T01:49:28.152Z,13.70
2023-05-19T01:51:55.258Z,13.25
2023-05-19T01:54:22.532Z,14.30
2023-05-19T01:57:29.862Z,11.07
2023-05-19T02:00:19.859Z,12.98
2023-05-19T02:03:23.224Z,11.52
2023-05-19T02:06:14.449Z,10.65
2023-05-19T02:08:58.774Z,9.27
2023-05-19T02:11:46.767Z,12.60
2023-05-19T02:14:27.815Z,11.25
2023-05-19T02:16:57.528Z,11.43
2023-05-19T02:19:37.829Z,10.25
2023-05-19T02:22:05.076Z,10.30
2023-05-19T02:24:32.686Z,9.52
2023-05-19T02:26:59.764Z,8.25
2023-05-19T02:29:26.816Z,15.32
2023-05-19T02:31:53.884Z,9.52
2023-05-19T02:34:21.314Z,8.43
2023-05-19T02:36:50.096Z,9.35
2023-05-19T02:39:17.211Z,9.60
2023-05-19T02:41:44.284Z,8.20
2023-05-19T02:44:11.309Z,10.95
2023-05-19T02:46:38.391Z,10.40
2023-05-19T02:49:05.566Z,11.48
2023-05-19T02:51:32.621Z,13.23
2023-05-19T02:53:59.609Z,11.52
2023-05-19T02:56:26.609Z,11.15
2023-05-19T02:58:53.612Z,9.27
2023-05-19T03:01:23.585Z,8.52
2023-05-19T03:03:50.798Z,8.57
2023-05-19T03:06:18.558Z,21.90
2023-05-19T03:08:45.571Z,17.17
2023-05-19T03:11:12.720Z,7.75
2023-05-19T03:13:39.774Z,7.97
2023-05-19T03:16:08.335Z,8.73
2023-05-19T03:18:36.331Z,9.38
2023-05-19T03:21:03.568Z,11.52
2023-05-19T03:23:30.584Z,9.15
2023-05-19T03:25:57.609Z,7.75
2023-05-19T03:28:24.636Z,9.40
2023-05-19T03:30:51.746Z,8.95
2023-05-19T03:33:18.992Z,8.20
2023-05-19T03:35:46.257Z,29.25
2023-05-19T03:38:13.320Z,7.40
2023-05-19T03:40:41.526Z,9.30
2023-05-19T03:43:08.832Z,10.75
2023-05-19T03:45:35.950Z,7.43
2023-05-19T03:48:02.981Z,9.23
2023-05-19T03:50:31.749Z,9.18
2023-05-19T03:52:59.079Z,9.70
2023-05-19T03:55:26.271Z,9.15
2023-05-19T03:57:53.347Z,9.60
2023-05-19T04:00:20.536Z,10.93
2023-05-19T04:02:47.845Z,9.93
2023-05-19T04:05:15.484Z,12.65
2023-05-19T04:07:43.319Z,8.45
2023-05-19T04:10:10.742Z,9.57
2023-05-19T04:12:37.807Z,8.70
2023-05-19T04:15:06.222Z,9.43
2023-05-19T04:17:33.341Z,13.05
2023-05-19T04:20:00.342Z,9.18
2023-05-19T04:22:27.422Z,9.88
2023-05-19T04:24:55.245Z,10.57
2023-05-19T04:27:22.379Z,9.52
2023-05-19T04:29:49.787Z,11.98
2023-05-19T04:32:19.453Z,7.57
2023-05-19T04:34:46.575Z,11.70
2023-05-19T04:37:16.692Z,9.68
2023-05-19T04:39:45.515Z,9.95
2023-05-19T04:42:13.737Z,10.45
2023-05-19T04:44:40.814Z,9.43
2023-05-19T04:47:09.187Z,9.68
2023-05-19T04:49:40.076Z,9.43
2023-05-19T04:52:08.376Z,15.20
2023-05-19T04:54:35.796Z,10.18
2023-05-19T04:57:03.348Z,10.52
2023-05-19T04:59:31.173Z,7.28
2023-05-19T05:01:58.423Z,8.90
2023-05-19T05:04:26.178Z,8.65
2023-05-19T05:06:53.283Z,8.60
2023-05-19T05:09:21.852Z,8.13
2023-05-19T05:11:49.281Z,7.60
2023-05-19T05:14:16.688Z,9.13
2023-05-19T05:16:44.287Z,8.68
2023-05-19T05:19:11.876Z,8.10
2023-05-19T05:21:39.213Z,11.93
2023-05-19T05:24:06.719Z,10.40
2023-05-19T05:26:35.710Z,10.20
2023-05-19T05:29:03.803Z,9.00
2023-05-19T05:31:31.654Z,11.57
2023-05-19T05:33:58.992Z,8.52
2023-05-19T05:36:26.111Z,11.57
2023-05-19T05:38:53.154Z,10.55
2023-05-19T05:41:20.390Z,9.65
2023-05-19T05:43:47.458Z,10.35
2023-05-19T05:46:14.554Z,11.45
2023-05-19T05:48:42.905Z,9.05
2023-05-19T05:51:10.319Z,10.15
2023-05-19T05:53:43.368Z,9.13
2023-05-19T05:56:11.893Z,7.88
2023-05-19T05:58:40.914Z,13.40
2023-05-19T06:01:11.352Z,8.20
2023-05-19T06:03:40.894Z,10.05
2023-05-19T06:06:08.241Z,8.75
2023-05-19T06:08:35.375Z,8.20
2023-05-19T06:11:09.484Z,9.10
2023-05-19T06:13:36.986Z,7.90
2023-05-19T06:16:04.510Z,9.40
2023-05-19T06:18:31.581Z,7.93
2023-05-19T06:20:58.727Z,7.43
2023-05-19T06:23:26.997Z,11.18
2023-05-19T06:25:53.991Z,7.07
2023-05-19T06:28:21.121Z,7.22
2023-05-19T06:30:48.183Z,7.68
2023-05-19T06:33:15.400Z,6.95
2023-05-19T06:35:42.443Z,8.38
2023-05-19T06:38:09.541Z,6.97
2023-05-19T06:40:37.208Z,9.80
2023-05-19T06:43:05.292Z,11.02
2023-05-19T06:45:32.886Z,9.88
2023-05-19T06:48:00.689Z,11.52
2023-05-19T06:50:27.950Z,9.98
2023-05-19T06:52:55.000Z,7.80
2023-05-19T06:55:22.155Z,10.15
2023-05-19T06:57:49.239Z,10.13
2023-05-19T07:00:19.271Z,9.75
2023-05-19T07:02:47.740Z,9.63
2023-05-19T07:05:15.253Z,11.73
2023-05-19T07:07:43.662Z,8.77
2023-05-19T07:10:11.382Z,9.27
2023-05-19T07:12:38.450Z,7.30
2023-05-19T07:15:06.130Z,7.63
2023-05-19T07:17:33.182Z,7.80
2023-05-19T07:20:01.766Z,7.20
2023-05-19T07:22:28.933Z,8.35
2023-05-19T07:24:57.251Z,8.02
2023-05-19T07:27:24.386Z,7.90
2023-05-19T07:29:51.519Z,9.30
2023-05-19T07:32:18.774Z,8.00
2023-05-19T07:34:46.128Z,7.97
2023-05-19T07:37:13.224Z,7.32
2023-05-19T07:39:40.359Z,8.57
2023-05-19T07:42:07.403Z,8.43
2023-05-19T07:44:34.946Z,7.38
2023-05-19T07:47:02.263Z,7.53
2023-05-19T07:49:29.877Z,7.53
2023-05-19T07:51:57.677Z,8.18
2023-05-19T07:54:24.830Z,9.18
2023-05-19T07:56:51.924Z,7.13
2023-05-19T07:59:20.163Z,6.88
2023-05-19T08:01:47.389Z,7.28
2023-05-19T08:04:14.600Z,8.38
2023-05-19T08:06:42.953Z,7.45
2023-05-19T08:09:10.444Z,9.52
2023-05-19T08:11:37.726Z,7.93
2023-05-19T08:14:04.976Z,6.50
2023-05-19T08:16:32.184Z,6.95
2023-05-19T08:19:02.768Z,7.60
2023-05-19T08:21:29.977Z,7.78
2023-05-19T08:23:57.281Z,8.63
2023-05-19T08:26:24.444Z,7.25
2023-05-19T08:28:51.509Z,9.50
2023-05-19T08:31:19.032Z,7.07
2023-05-19T08:33:46.165Z,8.43
2023-05-19T08:36:13.239Z,7.27
2023-05-19T08:38:40.329Z,9.10
2023-05-19T08:41:07.484Z,8.10
2023-05-19T08:43:34.856Z,7.30
2023-05-19T08:46:03.957Z,7.70
2023-05-19T08:48:33.970Z,6.60
2023-05-19T08:51:14.339Z,6.63
2023-05-19T08:53:46.661Z,7.00
2023-05-19T08:56:27.058Z,8.13
2023-05-19T08:58:56.887Z,9.33
2023-05-19T09:01:24.329Z,8.10
2023-05-19T09:03:52.883Z,7.07
2023-05-19T09:06:20.152Z,7.07
2023-05-19T09:08:48.503Z,6.57
2023-05-19T09:11:15.714Z,7.50
2023-05-19T09:13:42.968Z,10.23
2023-05-19T09:16:11.126Z,7.03
2023-05-19T09:18:41.170Z,8.43
2023-05-19T09:21:11.371Z,7.63
2023-05-19T09:23:38.559Z,8.67
2023-05-19T09:26:08.933Z,9.60
2023-05-19T09:28:37.946Z,7.47
2023-05-19T09:31:09.907Z,5.70
2023-05-19T09:33:45.518Z,10.17
2023-05-19T09:36:13.885Z,7.17
2023-05-19T09:38:41.664Z,7.50
2023-05-19T09:41:10.040Z,7.10
2023-05-19T09:43:37.087Z,7.93
2023-05-19T09:46:06.654Z,10.17
2023-05-19T09:48:37.606Z,5.17
2023-05-19T09:51:08.168Z,8.57
2023-05-19T09:53:35.713Z,7.70
2023-05-19T09:56:04.477Z,4.63
2023-05-19T09:58:35.661Z,4.97
2023-05-19T10:01:04.188Z,4.97
2023-05-19T10:03:33.195Z,5.87
2023-05-19T10:06:01.999Z,5.33
2023-05-19T10:08:30.900Z,5.20
2023-05-19T10:10:58.529Z,10.83
2023-05-19T10:13:27.126Z,6.03
2023-05-19T10:15:58.623Z,5.10
2023-05-19T10:18:30.101Z,6.60
2023-05-19T10:20:59.101Z,5.27
2023-05-19T10:23:26.874Z,4.73
2023-05-19T10:25:59.340Z,6.93
2023-05-19T10:28:41.220Z,5.63
2023-05-19T10:31:13.333Z,7.30
2023-05-19T10:34:05.125Z,4.97
2023-05-19T10:36:44.758Z,7.90
2023-05-19T10:39:22.474Z,5.53
2023-05-19T10:42:16.135Z,6.93
2023-05-19T10:44:58.288Z,5.43
2023-05-19T10:47:29.701Z,8.03
2023-05-19T10:49:57.334Z,6.33
2023-05-19T10:52:30.376Z,5.87
2023-05-19T10:54:58.534Z,5.10
2023-05-19T10:57:32.281Z,4.60
2023-05-19T11:00:10.397Z,4.90
2023-05-19T11:02:42.028Z,5.10
2023-05-19T11:05:11.224Z,5.43
2023-05-19T11:07:41.204Z,5.73
2023-05-19T11:10:08.684Z,3.93
2023-05-19T11:12:45.160Z,5.93
2023-05-19T11:15:16.913Z,5.00
2023-05-19T11:17:48.879Z,5.37
2023-05-19T11:20:29.554Z,5.70
2023-05-19T11:23:22.041Z,5.03
2023-05-19T11:25:51.608Z,5.00
2023-05-19T11:28:20.856Z,4.30
2023-05-19T11:30:52.730Z,4.60
2023-05-19T11:33:21.959Z,4.20
2023-05-19T11:35:51.612Z,4.37
2023-05-19T11:38:24.022Z,6.50
2023-05-19T11:40:54.591Z,4.87
2023-05-19T11:43:26.015Z,3.90
2023-05-19T11:45:55.118Z,4.13
2023-05-19T11:48:23.016Z,3.47
2023-05-19T11:50:51.214Z,4.13
2023-05-19T11:53:20.228Z,4.93
2023-05-19T11:55:49.063Z,3.50
2023-05-19T11:58:16.982Z,4.60
2023-05-19T12:00:48.046Z,3.60
2023-05-19T12:03:15.855Z,4.50
2023-05-19T12:05:49.159Z,3.30
2023-05-19T12:08:21.812Z,3.93
2023-05-19T12:10:52.651Z,3.77
2023-05-19T12:13:21.136Z,3.60
2023-05-19T12:15:48.360Z,2.90
2023-05-19T12:18:15.646Z,2.90
2023-05-19T12:20:43.331Z,3.73
2023-05-19T12:23:10.475Z,3.27
2023-05-19T12:25:38.665Z,3.10
2023-05-19T12:28:05.982Z,3.27
2023-05-19T12:30:35.133Z,4.20
2023-05-19T12:33:03.178Z,4.87
2023-05-19T12:35:34.873Z,3.50
2023-05-19T12:38:08.369Z,3.40
2023-05-19T12:40:37.987Z,3.63
2023-05-19T12:43:07.009Z,4.20
2023-05-19T12:45:38.918Z,3.73
2023-05-19T12:48:12.884Z,3.90
2023-05-19T12:50:40.171Z,3.00
2023-05-19T12:53:13.132Z,3.40
2023-05-19T12:55:45.080Z,3.10
2023-05-19T12:58:12.823Z,3.50
2023-05-19T13:00:45.684Z,3.43
2023-05-19T13:03:19.973Z,4.10
2023-05-19T13:05:49.270Z,3.20
2023-05-19T13:08:18.390Z,3.97
2023-05-19T13:10:47.050Z,3.30
2023-05-19T13:13:14.920Z,5.77
2023-05-19T13:15:43.678Z,2.90
2023-05-19T13:18:12.969Z,3.10
2023-05-19T13:20:41.851Z,4.77
2023-05-19T13:23:14.404Z,4.20
2023-05-19T13:25:42.517Z,2.83
2023-05-19T13:28:10.434Z,5.63
2023-05-19T13:30:39.437Z,2.97
2023-05-19T13:33:07.630Z,3.20
2023-05-19T13:35:38.208Z,3.17
2023-05-19T13:38:07.045Z,3.70
2023-05-19T13:40:35.190Z,3.53
2023-05-19T13:43:04.091Z,2.87
2023-05-19T13:45:31.380Z,3.00
2023-05-19T13:47:58.551Z,2.97
2023-05-19T13:50:25.903Z,3.03
2023-05-19T13:52:53.508Z,5.57
2023-05-19T13:55:20.758Z,3.37
2023-05-19T13:57:47.882Z,3.70
2023-05-19T14:00:15.510Z,3.57
2023-05-19T14:02:43.371Z,3.70
2023-05-19T14:05:10.789Z,3.37
2023-05-19T14:07:38.562Z,3.50
2023-05-19T14:10:07.073Z,3.30
2023-05-19T14:12:44.793Z,3.23
2023-05-19T14:15:20.422Z,3.63
2023-05-19T14:17:49.138Z,3.60
2023-05-19T14:20:16.343Z,3.20
2023-05-19T14:22:43.439Z,3.97
2023-05-19T14:25:10.712Z,4.00
2023-05-19T14:27:40.275Z,4.10
2023-05-19T14:30:08.238Z,3.70
2023-05-19T14:32:35.382Z,3.40
2023-05-19T14:35:02.738Z,3.73
2023-05-19T14:37:31.921Z,3.73
2023-05-19T14:39:59.605Z,4.17
2023-05-19T14:42:26.696Z,4.43
2023-05-19T14:44:53.872Z,3.30
2023-05-19T14:47:21.074Z,3.67
2023-05-19T14:49:48.220Z,3.90
2023-05-19T14:52:15.396Z,6.33
2023-05-19T14:54:42.478Z,6.10
2023-05-19T14:57:09.559Z,4.87
2023-05-19T14:59:39.777Z,4.23
2023-05-19T15:02:07.303Z,3.80
2023-05-19T15:04:34.423Z,4.03
2023-05-19T15:09:32.036Z,4.80
2023-05-19T15:12:01.382Z,6.77
2023-05-19T15:14:30.438Z,5.17
2023-05-19T15:16:58.595Z,4.80
2023-05-19T15:19:26.498Z,4.90
2023-05-19T15:21:54.263Z,5.10
2023-05-19T15:24:21.468Z,6.20
2023-05-19T15:26:48.895Z,4.80
2023-05-19T15:29:16.080Z,5.07
2023-05-19T15:31:43.249Z,4.70
2023-05-19T15:34:10.474Z,5.07
2023-05-19T15:36:37.539Z,4.30
2023-05-19T15:39:05.214Z,5.17
2023-05-19T15:41:32.372Z,4.80
2023-05-19T15:44:02.849Z,5.57
2023-05-19T15:46:30.804Z,5.33
2023-05-19T15:48:57.894Z,12.40
2023-05-19T15:51:25.692Z,5.27
2023-05-19T15:53:53.678Z,4.83
2023-05-19T15:56:21.720Z,4.90
2023-05-19T15:58:48.949Z,4.70
2023-05-19T16:01:16.928Z,4.60
2023-05-19T16:03:45.436Z,5.23
2023-05-19T16:06:12.832Z,5.17
2023-05-19T16:08:39.947Z,5.07
2023-05-19T16:11:07.229Z,5.40
2023-05-19T16:13:34.521Z,4.60
2023-05-19T16:16:02.012Z,5.03
2023-05-19T16:18:31.753Z,5.40
2023-05-19T16:20:58.832Z,5.43
2023-05-19T16:23:27.753Z,7.53
2023-05-19T16:25:55.042Z,4.67
2023-05-19T16:28:24.464Z,4.70
2023-05-19T16:30:52.158Z,4.60
2023-05-19T16:33:19.284Z,6.77
2023-05-19T16:35:46.451Z,6.33
2023-05-19T16:38:13.563Z,5.80
2023-05-19T16:40:40.725Z,5.87
2023-05-19T16:43:07.866Z,5.60
2023-05-19T16:45:35.009Z,5.63
2023-05-19T16:48:02.209Z,5.23
2023-05-19T16:50:29.584Z,5.27
2023-05-19T16:52:56.611Z,5.13
2023-05-19T16:55:25.487Z,4.93
2023-05-19T16:57:52.681Z,5.20
2023-05-19T17:00:20.067Z,5.00
2023-05-19T17:02:47.309Z,8.00
2023-05-19T17:05:14.410Z,7.20
2023-05-19T17:07:41.522Z,6.00
2023-05-19T17:10:09.297Z,6.43
2023-05-19T17:12:37.040Z,6.10
2023-05-19T17:15:04.628Z,7.53
2023-05-19T17:17:31.765Z,6.57
2023-05-19T17:19:58.855Z,5.40
2023-05-19T17:22:26.646Z,5.50
2023-05-19T17:24:54.400Z,6.40
2023-05-19T17:27:21.446Z,6.17
2023-05-19T17:29:48.506Z,5.77
2023-05-19T17:32:15.630Z,6.00
2023-05-19T17:34:42.678Z,6.10
2023-05-19T17:37:10.053Z,6.67
2023-05-19T17:39:37.120Z,10.20
2023-05-19T17:42:04.377Z,7.27
2023-05-19T17:44:31.408Z,7.03
2023-05-19T17:47:00.482Z,7.00
2023-05-19T17:49:27.677Z,7.60
2023-05-19T17:51:55.002Z,8.20
2023-05-19T17:54:22.370Z,8.40
2023-05-19T17:56:51.193Z,8.23
2023-05-19T17:59:18.783Z,8.00
2023-05-19T18:01:46.873Z,9.10
2023-05-19T18:04:16.246Z,8.50
2023-05-19T18:06:46.425Z,7.83
2023-05-19T18:09:14.606Z,9.37
2023-05-19T18:11:41.572Z,8.17
2023-05-19T18:14:08.658Z,9.20
2023-05-19T18:16:36.145Z,7.60
2023-05-19T18:19:03.718Z,7.93
2023-05-19T18:21:31.565Z,7.77
2023-05-19T18:24:00.715Z,8.03
2023-05-19T18:26:27.837Z,7.80
2023-05-19T18:28:54.894Z,8.60
2023-05-19T18:31:22.158Z,7.60
2023-05-19T18:33:49.481Z,8.07
2023-05-19T18:36:16.861Z,6.40
2023-05-19T18:38:43.966Z,6.47
2023-05-19T18:41:11.048Z,7.57
2023-05-19T18:43:38.926Z,6.47
2023-05-19T18:46:06.365Z,5.73
2023-05-19T18:48:33.596Z,6.27
2023-05-19T18:51:00.715Z,6.80
2023-05-19T18:53:27.767Z,6.33
2023-05-19T18:55:54.790Z,6.90
2023-05-19T18:58:22.009Z,7.07
2023-05-19T19:00:49.416Z,8.00
2023-05-19T19:03:16.673Z,7.50
2023-05-19T19:05:44.371Z,8.03
2023-05-19T19:08:11.505Z,7.07
2023-05-19T19:10:40.962Z,8.10
2023-05-19T19:13:08.058Z,8.70
2023-05-19T19:15:35.226Z,7.77
2023-05-19T19:18:02.510Z,7.77
2023-05-19T19:20:29.603Z,7.30
2023-05-19T19:22:57.246Z,8.13
2023-05-19T19:25:24.362Z,8.40
2023-05-19T19:27:51.784Z,8.30
2023-05-19T19:30:19.135Z,8.73
2023-05-19T19:32:46.300Z,8.40
2023-05-19T19:35:13.566Z,9.00
2023-05-19T19:37:40.614Z,8.40
2023-05-19T19:40:08.239Z,9.47
2023-05-19T19:42:35.575Z,8.10
2023-05-19T19:45:02.870Z,8.13
2023-05-19T19:47:30.016Z,8.00
2023-05-19T19:49:57.108Z,8.30
2023-05-19T19:52:24.173Z,8.20
2023-05-19T19:54:51.596Z,9.33
2023-05-19T19:57:18.709Z,7.93
2023-05-19T19:59:45.876Z,8.70
2023-05-19T20:02:12.998Z,7.60
2023-05-19T20:04:40.128Z,8.50
2023-05-19T20:07:07.483Z,7.40
2023-05-19T20:09:34.546Z,8.20
2023-05-19T20:12:01.713Z,8.67
2023-05-19T20:14:28.704Z,7.97
2023-05-19T20:16:55.778Z,8.93
2023-05-19T20:19:25.243Z,9.10
2023-05-19T20:21:52.309Z,8.80
2023-05-19T20:24:19.326Z,8.50
2023-05-19T20:26:46.703Z,8.40
2023-05-19T20:29:13.825Z,8.23
2023-05-19T20:31:41.361Z,7.50
2023-05-19T20:34:08.473Z,8.07
2023-05-19T20:36:35.764Z,6.60
2023-05-19T20:39:03.862Z,6.97
2023-05-19T20:41:31.931Z,6.30
2023-05-19T20:43:59.024Z,6.10
2023-05-19T20:46:26.394Z,5.97
2023-05-19T20:48:53.613Z,5.50
2023-05-19T20:51:21.938Z,6.60
2023-05-19T20:53:49.018Z,6.27
2023-05-19T20:56:16.222Z,5.40
2023-05-19T20:58:43.368Z,5.80
2023-05-19T21:01:10.698Z,5.30
2023-05-19T21:03:37.813Z,6.05
2023-05-19T21:06:05.173Z,6.05
2023-05-19T21:08:32.195Z,6.45
2023-05-19T21:10:59.543Z,6.88
2023-05-19T21:13:26.621Z,7.63
2023-05-19T21:15:53.665Z,8.70
2023-05-19T21:18:20.731Z,10.20
2023-05-19T21:20:47.815Z,8.32
2023-05-19T21:23:14.875Z,9.07
2023-05-19T21:25:44.007Z,9.23
2023-05-19T21:28:12.419Z,8.75
2023-05-19T21:30:39.622Z,10.35
2023-05-19T21:33:06.921Z,8.18
2023-05-19T21:35:33.950Z,8.00
2023-05-19T21:38:12.046Z,11.13
2023-05-19T21:40:48.348Z,13.50
2023-05-19T21:43:16.116Z,14.90
2023-05-19T21:45:43.260Z,18.70
2023-05-19T21:48:11.576Z,15.88
2023-05-19T21:50:39.176Z,18.08
2023-05-19T21:53:06.297Z,17.88
2023-05-19T21:55:33.438Z,19.58
2023-05-19T21:58:02.534Z,20.92
2023-05-19T22:00:30.265Z,21.85
2023-05-19T22:02:57.408Z,21.17
2023-05-19T22:05:24.494Z,19.45
2023-05-19T22:07:51.535Z,20.63
2023-05-19T22:10:18.663Z,22.98
2023-05-19T22:12:45.770Z,21.75
2023-05-19T22:15:14.610Z,22.27
2023-05-19T22:17:42.635Z,23.10
2023-05-19T22:20:10.089Z,21.92
2023-05-19T22:22:37.145Z,23.48
2023-05-19T22:25:04.945Z,23.25
2023-05-19T22:27:32.154Z,22.70
2023-05-19T22:30:01.878Z,25.20
2023-05-19T22:32:29.021Z,26.52
2023-05-19T22:34:56.140Z,28.83
2023-05-19T22:37:24.562Z,26.05
2023-05-19T22:39:51.782Z,25.15
2023-05-19T22:42:18.896Z,25.73
2023-05-19T22:44:46.061Z,29.02
2023-05-19T22:47:14.199Z,28.13
2023-05-19T22:49:42.786Z,26.65
2023-05-19T22:52:11.227Z,27.60
2023-05-19T22:54:39.025Z,26.33
2023-05-19T22:57:06.648Z,28.40
2023-05-19T22:59:33.794Z,28.27
2023-05-19T23:02:01.492Z,28.13
2023-05-19T23:04:28.645Z,30.20
2023-05-19T23:06:55.802Z,27.92
2023-05-19T23:09:22.884Z,29.25
2023-05-19T23:11:50.358Z,30.83
2023-05-19T23:14:18.898Z,29.30
2023-05-19T23:16:46.240Z,28.13
2023-05-19T23:19:15.507Z,35.25
2023-05-19T23:21:42.745Z,28.17
2023-05-19T23:24:09.890Z,33.55
2023-05-19T23:26:36.989Z,33.25
2023-05-19T23:29:03.998Z,30.70
2023-05-19T23:31:31.068Z,32.85
2023-05-19T23:34:02.003Z,28.95
2023-05-19T23:36:29.060Z,31.27
2023-05-19T23:38:56.143Z,29.58
2023-05-19T23:41:23.174Z,30.85
2023-05-19T23:43:50.205Z,28.60
2023-05-19T23:46:17.361Z,29.55
2023-05-19T23:48:44.527Z,30.20
2023-05-19T23:51:11.999Z,27.65
2023-05-19T23:53:39.323Z,33.03
2023-05-19T23:56:06.770Z,30.33
2023-05-19T23:58:33.853Z,28.65
